createdAt,value
2022-10-22T00:01:41.276Z,7.01
2022-10-22T00:04:08.864Z,7.03
2022-10-22T00:06:36.297Z,7.06
2022-10-22T00:09:06.383Z,7.06
2022-10-22T00:11:34.157Z,7.09
2022-10-22T00:14:01.700Z,7.05
2022-10-22T00:16:29.354Z,7.05
2022-10-22T00:18:56.926Z,7.11
2022-10-22T00:21:25.756Z,7.07
2022-10-22T00:23:53.169Z,7.13
2022-10-22T00:26:20.796Z,7.14
2022-10-22T00:28:48.300Z,7.19
2022-10-22T00:31:15.961Z,7.20
2022-10-22T00:33:45.800Z,7.21
2022-10-22T00:36:13.606Z,7.21
2022-10-22T00:38:41.276Z,7.21
2022-10-22T00:41:09.038Z,7.21
2022-10-22T00:43:58.011Z,7.35
2022-10-22T00:46:26.030Z,7.26
2022-10-22T00:48:54.965Z,7.23
2022-10-22T00:51:27.357Z,7.20
2022-10-22T00:54:00.506Z,7.19
2022-10-22T00:56:28.167Z,7.16
2022-10-22T00:59:00.758Z,7.19
2022-10-22T01:01:31.397Z,7.18
2022-10-22T01:03:59.393Z,7.18
2022-10-22T01:06:32.576Z,7.17
2022-10-22T01:09:19.870Z,7.24
2022-10-22T01:12:12.939Z,7.31
2022-10-22T01:14:58.711Z,7.22
2022-10-22T01:17:31.810Z,7.23
2022-10-22T01:20:37.516Z,7.31
2022-10-22T01:23:16.802Z,7.25
2022-10-22T01:26:05.746Z,7.19
2022-10-22T01:28:56.689Z,7.23
2022-10-22T01:31:39.895Z,7.19
2022-10-22T01:34:12.240Z,7.16
2022-10-22T01:36:46.835Z,7.14
2022-10-22T01:39:16.392Z,7.15
2022-10-22T01:41:48.555Z,7.17
2022-10-22T01:44:50.352Z,7.19
2022-10-22T01:47:29.594Z,7.23
2022-10-22T01:50:25.006Z,7.22
2022-10-22T01:53:30.724Z,7.32
2022-10-22T01:56:00.554Z,7.22
2022-10-22T01:58:54.556Z,7.27
2022-10-22T02:01:59.171Z,7.31
2022-10-22T02:04:39.940Z,7.15
2022-10-22T02:07:10.918Z,7.18
2022-10-22T02:09:47.094Z,7.23
2022-10-22T02:12:27.181Z,7.17
2022-10-22T02:14:57.137Z,7.20
2022-10-22T02:17:27.766Z,7.13
2022-10-22T02:20:00.648Z,7.16
2022-10-22T02:22:29.117Z,7.13
2022-10-22T02:24:56.975Z,7.12
2022-10-22T02:27:36.491Z,7.15
2022-10-22T02:30:06.039Z,7.12
2022-10-22T02:32:42.004Z,7.08
2022-10-22T02:35:13.819Z,7.10
2022-10-22T02:37:41.936Z,7.10
2022-10-22T02:40:18.526Z,7.05
2022-10-22T02:42:51.215Z,7.10
2022-10-22T02:45:20.219Z,7.07
2022-10-22T02:47:47.940Z,7.08
2022-10-22T02:50:15.832Z,7.13
2022-10-22T02:52:43.586Z,7.09
2022-10-22T02:55:13.545Z,7.10
2022-10-22T02:57:51.580Z,7.16
2022-10-22T03:00:21.445Z,7.18
2022-10-22T03:02:51.838Z,7.19
2022-10-22T03:05:19.340Z,7.19
2022-10-22T03:07:49.244Z,7.21
2022-10-22T03:10:17.021Z,7.21
2022-10-22T03:12:56.307Z,7.19
2022-10-22T03:15:23.873Z,7.25
2022-10-22T03:17:56.962Z,7.18
2022-10-22T03:20:24.532Z,7.24
2022-10-22T03:22:52.740Z,7.21
2022-10-22T03:25:24.110Z,7.25
2022-10-22T03:28:02.834Z,7.25
2022-10-22T03:30:30.405Z,7.24
2022-10-22T03:32:57.925Z,7.25
2022-10-22T03:35:28.065Z,7.27
2022-10-22T03:38:01.201Z,7.26
2022-10-22T03:40:36.170Z,7.29
2022-10-22T03:43:03.658Z,7.31
2022-10-22T03:45:31.123Z,7.28
2022-10-22T03:48:00.814Z,7.31
2022-10-22T03:50:28.547Z,7.32
2022-10-22T03:52:55.965Z,7.38
2022-10-22T03:55:23.617Z,7.41
2022-10-22T03:57:51.172Z,7.45
2022-10-22T04:00:18.834Z,7.43
2022-10-22T04:02:48.522Z,7.46
2022-10-22T04:05:16.262Z,7.45
2022-10-22T04:07:43.881Z,7.42
2022-10-22T04:10:11.569Z,7.43
2022-10-22T04:12:39.212Z,7.43
2022-10-22T04:15:07.267Z,7.39
2022-10-22T04:17:38.418Z,7.39
2022-10-22T04:20:06.794Z,7.43
2022-10-22T04:22:37.155Z,7.39
2022-10-22T04:25:07.129Z,7.45
2022-10-22T04:27:35.155Z,7.38
2022-10-22T04:30:06.768Z,7.49
2022-10-22T04:32:36.711Z,7.53
2022-10-22T04:35:04.630Z,7.49
2022-10-22T04:37:38.100Z,7.50
2022-10-22T04:40:06.455Z,7.50
2022-10-22T04:42:33.950Z,7.47
2022-10-22T04:45:01.411Z,7.52
2022-10-22T04:47:30.581Z,7.47
2022-10-22T04:50:00.260Z,7.56
2022-10-22T04:52:35.254Z,7.55
2022-10-22T04:55:02.858Z,7.57
2022-10-22T04:57:31.302Z,7.56
2022-10-22T05:00:03.862Z,7.55
2022-10-22T05:02:32.252Z,7.57
2022-10-22T05:05:02.231Z,7.52
2022-10-22T05:07:31.227Z,7.57
2022-10-22T05:09:58.737Z,7.64
2022-10-22T05:12:26.262Z,7.66
2022-10-22T05:14:56.233Z,7.66
2022-10-22T05:17:23.652Z,7.64
2022-10-22T05:19:51.141Z,7.66
2022-10-22T05:22:21.401Z,7.65
2022-10-22T05:24:51.146Z,7.74
2022-10-22T05:29:46.985Z,7.78
2022-10-22T05:32:17.154Z,7.84
2022-10-22T05:34:44.769Z,7.93
2022-10-22T05:37:12.193Z,7.93
2022-10-22T05:39:41.755Z,8.05
2022-10-22T05:42:14.267Z,8.14
2022-10-22T05:44:41.793Z,8.14
2022-10-22T05:47:10.141Z,8.19
2022-10-22T05:49:40.126Z,8.24
2022-10-22T05:52:15.026Z,8.30
2022-10-22T05:54:42.628Z,8.37
2022-10-22T05:57:12.506Z,8.43
2022-10-22T05:59:40.049Z,8.40
2022-10-22T06:02:09.866Z,8.51
2022-10-22T06:04:37.513Z,8.50
2022-10-22T06:07:15.583Z,8.61
2022-10-22T06:09:50.500Z,8.59
2022-10-22T06:12:26.102Z,8.57
2022-10-22T06:14:53.620Z,8.61
2022-10-22T06:17:25.634Z,8.59
2022-10-22T06:19:55.346Z,8.62
2022-10-22T06:22:22.909Z,8.64
2022-10-22T06:24:50.338Z,8.56
2022-10-22T06:27:17.851Z,8.61
2022-10-22T06:29:47.816Z,8.59
2022-10-22T06:32:15.341Z,8.63
2022-10-22T06:34:48.453Z,8.69
2022-10-22T06:37:16.264Z,8.80
2022-10-22T06:39:43.828Z,8.84
2022-10-22T06:42:11.396Z,8.89
2022-10-22T06:44:43.441Z,8.96
2022-10-22T06:47:13.313Z,9.01
2022-10-22T06:49:43.194Z,9.01
2022-10-22T06:52:13.080Z,9.05
2022-10-22T06:54:43.243Z,9.17
2022-10-22T06:57:13.196Z,9.29
2022-10-22T06:59:43.087Z,9.41
2022-10-22T07:02:15.646Z,9.63
2022-10-22T07:04:45.600Z,9.69
2022-10-22T07:07:16.308Z,9.77
2022-10-22T07:09:46.890Z,9.92
2022-10-22T07:12:14.636Z,9.97
2022-10-22T07:14:42.367Z,10.03
2022-10-22T07:17:12.785Z,10.03
2022-10-22T07:19:40.239Z,9.96
2022-10-22T07:22:07.759Z,9.89
2022-10-22T07:24:35.231Z,9.75
2022-10-22T07:27:02.767Z,9.67
2022-10-22T07:29:33.078Z,9.66
2022-10-22T07:32:00.596Z,9.68
2022-10-22T07:34:28.059Z,9.67
2022-10-22T07:36:57.283Z,9.68
2022-10-22T07:39:25.979Z,9.69
2022-10-22T07:41:53.459Z,9.67
2022-10-22T07:44:20.996Z,9.61
2022-10-22T07:46:49.092Z,9.69
2022-10-22T07:49:16.701Z,9.70
2022-10-22T07:51:44.181Z,9.74
2022-10-22T07:54:19.443Z,9.81
2022-10-22T07:56:56.019Z,10.16
2022-10-22T07:59:30.847Z,9.95
2022-10-22T08:02:16.029Z,10.00
2022-10-22T08:04:43.488Z,9.92
2022-10-22T08:07:10.927Z,9.91
2022-10-22T08:09:40.522Z,9.93
2022-10-22T08:12:08.130Z,9.90
2022-10-22T08:14:35.748Z,9.84
2022-10-22T08:17:03.363Z,9.75
2022-10-22T08:19:32.576Z,9.80
2022-10-22T08:22:00.048Z,9.83
2022-10-22T08:24:27.711Z,9.81
2022-10-22T08:26:58.717Z,9.82
2022-10-22T08:29:26.977Z,9.78
2022-10-22T08:31:54.985Z,9.74
2022-10-22T08:34:22.764Z,9.79
2022-10-22T08:36:50.220Z,9.82
2022-10-22T08:39:20.267Z,9.78
2022-10-22T08:42:06.256Z,9.87
2022-10-22T08:44:45.411Z,9.75
2022-10-22T08:47:24.845Z,9.66
2022-10-22T08:49:54.530Z,9.48
2022-10-22T08:52:22.149Z,9.42
2022-10-22T08:55:01.956Z,9.38
2022-10-22T08:57:59.744Z,9.44
2022-10-22T09:00:47.787Z,9.44
2022-10-22T09:03:31.141Z,9.47
2022-10-22T09:06:13.045Z,9.53
2022-10-22T09:08:42.662Z,9.56
2022-10-22T09:11:12.925Z,9.64
2022-10-22T09:13:42.264Z,9.69
2022-10-22T09:16:43.906Z,9.79
2022-10-22T09:19:29.754Z,9.66
2022-10-22T09:22:18.626Z,9.68
2022-10-22T09:24:48.923Z,9.65
2022-10-22T09:27:19.101Z,9.65
2022-10-22T09:29:48.205Z,9.64
2022-10-22T09:32:18.909Z,9.74
2022-10-22T09:34:48.827Z,9.80
2022-10-22T09:37:19.073Z,9.79
2022-10-22T09:39:52.534Z,9.88
2022-10-22T09:42:21.362Z,9.82
2022-10-22T09:45:08.599Z,9.89
2022-10-22T09:48:00.450Z,9.92
2022-10-22T09:50:49.980Z,9.89
2022-10-22T09:53:17.416Z,9.88
2022-10-22T09:55:51.181Z,9.86
2022-10-22T09:58:20.124Z,9.79
2022-10-22T10:01:07.763Z,9.78
2022-10-22T10:03:37.717Z,9.71
2022-10-22T10:06:07.407Z,9.70
2022-10-22T10:08:38.035Z,9.72
2022-10-22T10:11:18.192Z,9.71
2022-10-22T10:14:27.174Z,9.79
2022-10-22T10:17:03.014Z,10.03
2022-10-22T10:19:51.425Z,9.93
2022-10-22T10:22:40.893Z,10.06
2022-10-22T10:25:24.723Z,9.91
2022-10-22T10:28:17.415Z,9.81
2022-10-22T10:31:17.773Z,9.86
2022-10-22T10:34:23.125Z,9.77
2022-10-22T10:37:32.510Z,9.69
2022-10-22T10:40:23.086Z,9.63
2022-10-22T10:43:03.854Z,9.71
2022-10-22T10:45:40.369Z,9.77
2022-10-22T10:48:19.142Z,9.78
2022-10-22T10:51:14.490Z,9.93
2022-10-22T10:53:53.919Z,9.86
2022-10-22T10:56:39.191Z,9.98
2022-10-22T10:59:18.688Z,9.90
2022-10-22T11:02:17.106Z,9.92
2022-10-22T11:05:01.893Z,9.93
2022-10-22T11:07:54.950Z,9.93
2022-10-22T11:10:30.053Z,9.83
2022-10-22T11:13:22.559Z,9.84
2022-10-22T11:16:06.110Z,9.73
2022-10-22T11:18:42.051Z,9.63
2022-10-22T11:21:27.247Z,9.60
2022-10-22T11:24:23.106Z,9.68
2022-10-22T11:26:57.652Z,9.54
2022-10-22T11:29:33.203Z,9.51
2022-10-22T11:32:03.047Z,9.47
2022-10-22T11:34:41.273Z,9.48
2022-10-22T11:37:14.188Z,9.39
2022-10-22T11:39:50.799Z,9.38
2022-10-22T11:42:41.061Z,9.47
2022-10-22T11:45:14.492Z,9.39
2022-10-22T11:48:04.901Z,9.40
2022-10-22T11:50:41.562Z,9.43
2022-10-22T11:53:15.017Z,9.38
2022-10-22T11:56:13.236Z,9.32
2022-10-22T11:58:45.075Z,9.36
2022-10-22T12:01:12.607Z,9.37
2022-10-22T12:03:42.518Z,9.40
2022-10-22T12:06:15.957Z,9.41
2022-10-22T12:08:49.324Z,9.44
2022-10-22T12:11:25.807Z,9.36
2022-10-22T12:14:19.969Z,9.47
2022-10-22T12:16:57.812Z,9.44
2022-10-22T12:19:34.204Z,9.39
2022-10-22T12:22:07.904Z,9.37
2022-10-22T12:24:38.639Z,9.28
2022-10-22T12:27:22.449Z,9.37
2022-10-22T12:29:55.939Z,9.31
2022-10-22T12:32:35.316Z,9.27
2022-10-22T12:35:11.922Z,9.26
2022-10-22T12:37:41.968Z,9.28
2022-10-22T12:40:21.071Z,9.26
2022-10-22T12:42:58.038Z,9.16
2022-10-22T12:45:31.461Z,9.24
2022-10-22T12:48:05.543Z,9.22
2022-10-22T12:50:39.592Z,9.17
2022-10-22T12:53:23.154Z,9.13
2022-10-22T12:55:53.081Z,9.21
2022-10-22T12:58:34.694Z,9.14
2022-10-22T13:01:04.960Z,9.17
2022-10-22T13:03:35.353Z,9.07
2022-10-22T13:06:20.535Z,9.12
2022-10-22T13:09:06.495Z,9.04
2022-10-22T13:11:42.898Z,8.95
2022-10-22T13:14:39.630Z,8.97
2022-10-22T13:17:18.387Z,8.78
2022-10-22T13:19:52.933Z,8.73
2022-10-22T13:22:41.027Z,8.72
2022-10-22T13:25:20.253Z,8.81
2022-10-22T13:27:54.781Z,8.57
2022-10-22T13:30:36.073Z,8.54
2022-10-22T13:33:07.823Z,8.46
2022-10-22T13:35:38.341Z,8.32
2022-10-22T13:38:24.034Z,8.30
2022-10-22T13:40:52.049Z,8.18
2022-10-22T13:43:22.209Z,8.15
2022-10-22T13:45:54.346Z,8.07
2022-10-22T13:48:24.593Z,7.96
2022-10-22T13:51:01.926Z,8.00
2022-10-22T13:53:31.252Z,7.93
2022-10-22T13:56:01.824Z,7.93
2022-10-22T13:58:31.629Z,7.88
2022-10-22T14:01:01.026Z,7.95
2022-10-22T14:03:32.404Z,7.89
2022-10-22T14:06:02.642Z,7.92
2022-10-22T14:08:30.247Z,7.91
2022-10-22T14:10:57.877Z,7.94
2022-10-22T14:13:27.485Z,7.91
2022-10-22T14:16:00.029Z,7.93
2022-10-22T14:18:31.725Z,7.87
2022-10-22T14:21:10.242Z,7.77
2022-10-22T14:23:48.065Z,7.90
2022-10-22T14:26:27.477Z,7.88
2022-10-22T14:29:11.807Z,7.86
2022-10-22T14:34:17.052Z,7.83
2022-10-22T14:36:44.809Z,7.87
2022-10-22T14:39:14.508Z,7.87
2022-10-22T14:41:42.718Z,7.86
2022-10-22T14:44:14.581Z,7.86
2022-10-22T14:46:45.323Z,7.90
2022-10-22T14:49:18.528Z,7.93
2022-10-22T14:51:46.060Z,7.92
2022-10-22T14:54:22.312Z,8.03
2022-10-22T14:57:16.680Z,8.05
2022-10-22T15:00:40.258Z,8.16
2022-10-22T15:03:45.460Z,8.02
2022-10-22T15:06:17.674Z,7.98
2022-10-22T15:08:47.666Z,8.02
2022-10-22T15:11:17.434Z,8.02
2022-10-22T15:13:45.039Z,7.96
2022-10-22T15:16:15.845Z,8.01
2022-10-22T15:18:43.327Z,8.11
2022-10-22T15:21:21.572Z,8.16
2022-10-22T15:23:49.802Z,8.14
2022-10-22T15:26:17.810Z,8.09
2022-10-22T15:28:45.372Z,8.16
2022-10-22T15:31:14.727Z,8.18
2022-10-22T15:33:43.447Z,8.14
2022-10-22T15:36:21.523Z,8.11
2022-10-22T15:38:49.000Z,8.10
2022-10-22T15:41:16.552Z,8.09
2022-10-22T15:43:47.481Z,8.11
2022-10-22T15:46:30.839Z,8.11
2022-10-22T15:49:00.937Z,8.06
2022-10-22T15:51:30.686Z,8.07
2022-10-22T15:53:59.536Z,8.06
2022-10-22T15:56:29.469Z,8.04
2022-10-22T15:59:00.197Z,8.06
2022-10-22T16:01:32.138Z,7.98
2022-10-22T16:04:00.434Z,8.00
2022-10-22T16:06:47.069Z,7.93
2022-10-22T16:09:18.772Z,7.97
2022-10-22T16:11:50.138Z,7.96
2022-10-22T16:14:21.845Z,7.90
2022-10-22T16:17:11.837Z,7.97
2022-10-22T16:19:39.246Z,7.98
2022-10-22T16:22:09.779Z,7.87
2022-10-22T16:24:45.539Z,7.86
2022-10-22T16:27:13.052Z,7.90
2022-10-22T16:29:40.758Z,7.84
2022-10-22T16:32:08.336Z,7.82
2022-10-22T16:34:35.824Z,7.80
2022-10-22T16:37:04.454Z,7.86
2022-10-22T16:39:35.105Z,7.91
2022-10-22T16:42:02.716Z,7.78
2022-10-22T16:44:33.161Z,7.86
2022-10-22T16:47:01.148Z,7.84
2022-10-22T16:49:31.452Z,7.86
2022-10-22T16:52:06.508Z,7.86
2022-10-22T16:54:37.108Z,7.86
2022-10-22T16:57:07.826Z,7.85
2022-10-22T17:17:18.366Z,7.97
2022-10-22T17:20:45.893Z,7.95
2022-10-22T17:23:23.202Z,7.92
2022-10-22T17:30:00.740Z,7.87
2022-10-22T17:32:30.745Z,7.94
2022-10-22T17:34:58.544Z,7.85
2022-10-22T17:37:25.959Z,7.90
2022-10-22T17:40:27.492Z,7.94
2022-10-22T17:44:02.518Z,7.88
2022-10-22T17:47:40.589Z,7.89
2022-10-22T17:50:26.559Z,7.78
2022-10-22T17:53:46.271Z,7.90
2022-10-22T17:56:43.072Z,7.83
2022-10-22T18:08:12.514Z,7.82
2022-10-22T18:10:40.470Z,7.72
2022-10-22T18:13:08.525Z,7.70
2022-10-22T18:15:36.571Z,7.72
2022-10-22T18:18:04.565Z,7.73
2022-10-22T18:20:34.881Z,7.74
2022-10-22T18:23:15.110Z,7.80
2022-10-22T18:25:42.694Z,7.80
2022-10-22T18:28:13.052Z,7.80
2022-10-22T18:30:45.955Z,7.82
2022-10-22T18:33:18.024Z,7.78
2022-10-22T18:35:52.567Z,7.78
2022-10-22T18:38:23.773Z,7.84
2022-10-22T18:40:54.133Z,7.83
2022-10-22T18:43:21.721Z,7.77
2022-10-22T18:45:49.312Z,7.72
2022-10-22T18:48:23.138Z,7.64
2022-10-22T18:51:02.920Z,7.74
2022-10-22T18:53:32.651Z,7.68
2022-10-22T18:56:00.444Z,7.70
2022-10-22T18:58:30.402Z,7.70
2022-10-22T19:00:57.915Z,7.68
2022-10-22T19:03:25.401Z,7.74
2022-10-22T19:05:57.451Z,7.74
2022-10-22T19:08:27.495Z,7.72
2022-10-22T19:10:55.092Z,7.76
2022-10-22T19:13:25.460Z,7.73
2022-10-22T19:15:54.913Z,7.69
2022-10-22T19:18:22.349Z,7.63
2022-10-22T19:21:01.863Z,7.68
2022-10-22T19:23:30.709Z,7.60
2022-10-22T19:26:12.653Z,7.69
2022-10-22T19:28:40.709Z,7.67
2022-10-22T19:31:16.726Z,7.73
2022-10-22T19:33:44.292Z,7.71
2022-10-22T19:36:16.236Z,7.68
2022-10-22T19:38:46.820Z,7.70
2022-10-22T19:41:17.600Z,7.72
2022-10-22T19:43:54.032Z,7.64
2022-10-22T19:46:23.158Z,7.67
2022-10-22T19:48:52.392Z,7.74
2022-10-22T19:51:22.069Z,7.64
2022-10-22T19:53:50.103Z,7.61
2022-10-22T19:56:21.964Z,7.67
2022-10-22T19:58:49.636Z,7.57
2022-10-22T20:01:18.810Z,7.54
2022-10-22T20:03:55.569Z,7.66
2022-10-22T20:06:23.138Z,7.63
2022-10-22T20:08:56.022Z,7.67
2022-10-22T20:11:27.885Z,7.79
2022-10-22T20:13:58.654Z,7.70
2022-10-22T20:16:29.928Z,7.72
2022-10-22T20:20:02.364Z,7.84
2022-10-22T20:22:44.868Z,7.82
2022-10-22T20:29:34.000Z,7.82
2022-10-22T20:32:04.291Z,7.81
2022-10-22T20:35:11.282Z,7.83
2022-10-22T20:46:28.008Z,7.82
2022-10-22T20:50:09.021Z,7.71
2022-10-22T20:53:50.424Z,7.73
2022-10-22T21:05:06.362Z,7.61
2022-10-22T21:14:50.749Z,7.67
2022-10-22T21:17:20.664Z,7.54
2022-10-22T21:20:02.454Z,7.50
2022-10-22T21:22:46.756Z,7.64
2022-10-22T21:25:16.706Z,7.59
2022-10-22T21:27:44.205Z,7.57
2022-10-22T21:30:15.243Z,7.59
2022-10-22T21:32:44.109Z,7.57
2022-10-22T21:35:12.415Z,7.54
2022-10-22T21:38:10.379Z,7.49
2022-10-22T21:40:59.517Z,7.55
2022-10-22T21:43:26.975Z,7.54
2022-10-22T21:46:06.965Z,7.58
2022-10-22T21:48:44.676Z,7.50
2022-10-22T21:51:23.968Z,7.62
2022-10-22T21:53:55.027Z,7.58
2022-10-22T21:56:42.523Z,7.56
2022-10-22T21:59:40.410Z,7.60
2022-10-22T22:02:52.906Z,7.65
2022-10-22T22:06:04.092Z,7.60
2022-10-22T22:09:17.325Z,7.54
2022-10-22T22:12:40.889Z,7.53
2022-10-22T22:15:46.156Z,7.43
2022-10-22T22:23:09.782Z,7.49
2022-10-22T22:34:53.209Z,7.43
2022-10-22T22:37:20.768Z,7.38
2022-10-22T22:47:38.868Z,7.48
2022-10-22T22:50:07.401Z,7.42
2022-10-22T22:52:59.392Z,7.49
2022-10-22T22:56:18.659Z,7.40
2022-10-22T22:59:07.277Z,7.39
2022-10-22T23:01:38.054Z,7.35
2022-10-22T23:04:11.288Z,7.39
2022-10-22T23:06:39.648Z,7.33
2022-10-22T23:09:13.674Z,7.35
2022-10-22T23:11:43.356Z,7.30
2022-10-22T23:14:14.880Z,7.35
2022-10-22T23:16:49.312Z,7.30
2022-10-22T23:19:19.375Z,7.30
2022-10-22T23:21:49.675Z,7.33
2022-10-22T23:24:27.116Z,7.39
2022-10-22T23:26:56.523Z,7.31
2022-10-22T23:29:26.801Z,7.27
2022-10-22T23:31:55.631Z,7.34
2022-10-22T23:34:33.113Z,7.31
2022-10-22T23:37:00.628Z,7.24
2022-10-22T23:39:29.648Z,7.24
2022-10-22T23:41:57.793Z,7.29
2022-10-22T23:44:25.825Z,7.28
2022-10-22T23:46:55.674Z,7.30
2022-10-22T23:49:25.568Z,7.30
2022-10-22T23:51:53.100Z,7.34
2022-10-22T23:54:20.570Z,7.30
2022-10-22T23:56:50.437Z,7.29
